Time;durP1;ratioP1;P1;durP2;ratioP2;P2;SDS_P1;SDS_P2;PMS_P1;PMS_P2;Temp;Humidity;BMP_temperature;BMP_pressure;BME280_temperature;BME280_humidity;BME280_pressure;Samples;Min_cycle;Max_cycle;Signal;HPM_P1;HPM_P2
2023/06/22 00:02:22;;;;;;;8.60;6.43;;;;;;;20.66;100.00;96389.19;4950720;28;101952;-60
2023/06/22 00:04:49;;;;;;;8.87;5.93;;;;;;;20.66;100.00;96391.91;4934469;28;105501;-60
2023/06/22 00:07:16;;;;;;;9.03;5.97;;;;;;;20.64;100.00;96398.72;4937041;28;105880;-60
2023/06/22 00:09:44;;;;;;;10.10;6.90;;;;;;;20.66;100.00;96393.81;4934291;28;105500;-60
2023/06/22 00:12:12;;;;;;;8.50;6.47;;;;;;;20.68;100.00;96397.00;4933768;28;105746;-60
2023/06/22 00:14:39;;;;;;;8.03;6.00;;;;;;;20.67;100.00;96396.22;4950582;28;102235;-60
2023/06/22 00:17:06;;;;;;;13.90;6.60;;;;;;;20.70;100.00;96411.00;4934199;28;104177;-60
2023/06/22 00:19:35;;;;;;;9.50;6.53;;;;;;;20.43;100.00;96419.34;4933573;28;105715;-60
2023/06/22 00:22:03;;;;;;;12.47;6.80;;;;;;;20.40;100.00;96419.94;4934201;28;102325;-60
2023/06/22 00:24:30;;;;;;;9.17;6.67;;;;;;;20.50;100.00;96415.03;4950416;28;105581;-60
2023/06/22 00:26:58;;;;;;;9.07;5.70;;;;;;;20.55;100.00;96414.91;4933451;28;105959;-60
2023/06/22 00:29:25;;;;;;;6.83;5.67;;;;;;;20.57;100.00;96406.50;4937503;28;102041;-60
2023/06/22 00:31:52;;;;;;;8.87;6.20;;;;;;;20.57;100.00;96401.09;4933579;28;105657;-60
2023/06/22 00:34:19;;;;;;;9.07;5.83;;;;;;;20.57;100.00;96393.78;4933826;28;101930;-60
2023/06/22 00:36:46;;;;;;;10.80;5.97;;;;;;;20.51;100.00;96402.34;4933801;28;105399;-60
2023/06/22 00:39:14;;;;;;;8.50;5.57;;;;;;;20.28;100.00;96404.31;4933260;28;105909;-60
2023/06/22 00:41:41;;;;;;;10.10;6.23;;;;;;;20.29;100.00;96394.31;4950150;28;101961;-60
2023/06/22 00:44:09;;;;;;;12.17;5.50;;;;;;;20.29;100.00;96391.63;4933684;28;105861;-60
2023/06/22 00:46:36;;;;;;;9.13;6.13;;;;;;;20.36;100.00;96378.44;4945511;28;105659;-60
2023/06/22 00:49:05;;;;;;;7.60;5.60;;;;;;;20.35;100.00;96380.38;4952978;28;102473;-60
2023/06/22 00:51:32;;;;;;;11.93;5.93;;;;;;;20.40;100.00;96379.41;4933092;28;105948;-60
2023/06/22 00:54:00;;;;;;;8.37;5.47;;;;;;;20.37;100.00;96383.53;4933496;28;102057;-60
2023/06/22 00:56:29;;;;;;;9.43;5.10;;;;;;;20.29;100.00;96375.41;4949887;28;105539;-60
2023/06/22 00:58:57;;;;;;;10.07;6.13;;;;;;;20.32;100.00;96372.09;4932991;28;106085;-60
2023/06/22 01:01:25;;;;;;;7.63;5.07;;;;;;;20.09;100.00;96365.94;4933578;28;102029;-60
2023/06/22 01:03:52;;;;;;;9.47;6.07;;;;;;;19.93;100.00;96372.00;4933621;28;105339;-60
2023/06/22 01:06:37;;;;;;;13.63;6.67;;;;;;;19.83;100.00;96370.38;4949115;28;104213;-60
2023/06/22 01:09:09;;;;;;;10.23;6.33;;;;;;;19.90;100.00;96372.66;4949688;28;101965;-60
2023/06/22 01:11:45;;;;;;;10.60;6.03;;;;;;;19.99;100.00;96365.41;4936336;28;105048;-60
2023/06/22 01:14:17;;;;;;;13.87;6.40;;;;;;;20.03;100.00;96369.88;4933534;28;102160;-60
2023/06/22 01:16:48;;;;;;;8.63;5.57;;;;;;;20.03;100.00;96369.88;4933232;28;105473;-60
2023/06/22 01:19:29;;;;;;;9.77;6.27;;;;;;;20.09;100.00;96373.25;4932709;28;106007;-60
2023/06/22 01:21:59;;;;;;;9.87;6.17;;;;;;;20.07;100.00;96378.16;4933291;28;101888;-60
2023/06/22 01:24:35;;;;;;;7.37;6.07;;;;;;;20.03;100.00;96374.47;4949577;28;104924;-60
2023/06/22 01:27:16;;;;;;;10.73;6.10;;;;;;;20.05;100.00;96372.25;4932600;28;105119;-60
2023/06/22 01:29:45;;;;;;;10.00;5.57;;;;;;;19.99;100.00;96358.09;4933294;28;102028;-60
2023/06/22 01:32:14;;;;;;;10.77;5.73;;;;;;;19.71;100.00;96356.66;4933231;28;105299;-60
2023/06/22 01:34:42;;;;;;;9.17;5.97;;;;;;;19.73;100.00;96350.97;4935764;28;106151;-60
2023/06/22 01:37:09;;;;;;;8.13;5.53;;;;;;;19.66;100.00;96350.59;4933027;28;104338;-60
2023/06/22 01:39:38;;;;;;;9.97;6.47;;;;;;;19.52;100.00;96349.88;4932433;28;106174;-60
2023/06/22 01:42:06;;;;;;;11.47;6.30;;;;;;;19.56;100.00;96356.25;4949197;28;101939;-60
2023/06/22 01:44:35;;;;;;;9.23;5.80;;;;;;;19.45;100.00;96352.22;4949133;28;105744;-60
2023/06/22 01:47:03;;;;;;;8.37;5.83;;;;;;;19.48;100.00;96355.09;4959836;28;102900;-60
2023/06/22 01:49:31;;;;;;;10.53;6.33;;;;;;;19.52;100.00;96341.78;4952201;28;101956;-60
2023/06/22 01:51:58;;;;;;;13.20;6.90;;;;;;;19.54;100.00;96350.34;4952247;28;105765;-60
2023/06/22 01:54:25;;;;;;;7.50;6.00;;;;;;;19.42;100.00;96353.63;4951582;28;105578;-60
2023/06/22 01:56:52;;;;;;;10.27;5.73;;;;;;;19.42;100.00;96340.13;4955714;28;101909;-60
2023/06/22 01:59:26;;;;;;;7.60;5.10;;;;;;;19.45;100.00;96330.63;4967991;28;105420;-60
2023/06/22 02:01:58;;;;;;;9.17;6.30;;;;;;;19.51;100.00;96334.81;4951154;28;102005;-60
2023/06/22 02:04:33;;;;;;;9.57;5.83;;;;;;;19.40;100.00;96334.22;4969920;28;102350;-60
2023/06/22 02:07:01;;;;;;;9.90;6.13;;;;;;;19.43;100.00;96333.63;4969569;28;102787;-60
2023/06/22 02:09:31;;;;;;;10.50;6.30;;;;;;;19.39;100.00;96331.84;4968556;28;101993;-60
2023/06/22 02:12:01;;;;;;;10.03;6.30;;;;;;;19.39;100.00;96327.25;4968482;28;105279;-60
2023/06/22 02:14:29;;;;;;;10.77;7.13;;;;;;;19.24;100.00;96327.63;4967822;28;105838;-60
2023/06/22 02:16:58;;;;;;;9.87;6.57;;;;;;;18.95;100.00;96332.59;4951810;28;101873;-60
2023/06/22 02:19:28;;;;;;;8.47;6.40;;;;;;;18.92;100.00;96340.50;4954589;28;105430;-60
2023/06/22 02:21:55;;;;;;;9.93;7.40;;;;;;;18.89;100.00;96328.41;4951987;28;101937;-60
2023/06/22 02:24:23;;;;;;;11.33;7.53;;;;;;;18.99;100.00;96330.09;4952030;28;105610;-60
2023/06/22 02:26:50;;;;;;;12.73;7.00;;;;;;;18.99;100.00;96322.81;4967597;28;105759;-60
2023/06/22 02:29:17;;;;;;;8.83;6.07;;;;;;;19.02;100.00;96319.47;4968565;28;101927;-60
2023/06/22 02:31:44;;;;;;;11.80;6.83;;;;;;;19.05;100.00;96328.84;4951855;28;104903;-60
2023/06/22 02:34:18;;;;;;;10.50;6.67;;;;;;;19.00;100.00;96321.69;4951134;28;105873;-60
2023/06/22 02:36:50;;;;;;;12.57;6.00;;;;;;;18.90;100.00;96319.22;4951652;28;101889;-60
2023/06/22 02:39:20;;;;;;;10.20;6.37;;;;;;;18.91;100.00;96312.72;4951863;28;105463;-60
2023/06/22 02:41:47;;;;;;;10.50;6.83;;;;;;;18.91;100.00;96314.66;4954232;28;101839;-60
2023/06/22 02:44:16;;;;;;;8.60;6.43;;;;;;;18.87;100.00;96314.47;4951615;28;105226;-60
2023/06/22 02:46:43;;;;;;;9.73;6.77;;;;;;;18.79;100.00;96315.16;4966866;28;105872;-60
2023/06/22 02:49:11;;;;;;;9.37;6.43;;;;;;;18.66;100.00;96323.28;4951731;28;102263;-60
2023/06/22 02:51:40;;;;;;;7.93;6.03;;;;;;;18.73;100.00;96320.97;4951599;28;103983;-60
2023/06/22 02:54:10;;;;;;;10.27;7.10;;;;;;;18.72;100.00;96322.06;4967328;28;105550;-60
2023/06/22 02:56:37;;;;;;;9.57;6.47;;;;;;;18.73;100.00;96329.03;4951407;28;101930;-60
2023/06/22 02:59:06;;;;;;;10.13;6.83;;;;;;;18.60;100.00;96330.69;4952586;28;101762;-60
2023/06/22 03:01:39;;;;;;;8.50;6.23;;;;;;;18.64;100.00;96325.50;4954244;28;105552;-60
2023/06/22 03:04:11;;;;;;;9.90;7.20;;;;;;;18.68;100.00;96329.97;4951510;28;104032;-60
2023/06/22 03:06:40;;;;;;;10.03;7.40;;;;;;;18.71;100.00;96331.25;4950830;28;105415;-60
2023/06/22 03:09:10;;;;;;;9.03;6.57;;;;;;;18.74;100.00;96341.44;4967811;28;101835;-60
2023/06/22 03:11:37;;;;;;;8.17;6.37;;;;;;;18.64;100.00;96336.25;4951532;28;104149;-60
2023/06/22 03:14:05;;;;;;;10.47;6.70;;;;;;;18.61;100.00;96343.06;4970494;28;105748;-60
2023/06/22 03:16:32;;;;;;;7.93;6.80;;;;;;;18.57;100.00;96349.31;4971091;28;101963;-60
2023/06/22 03:19:00;;;;;;;6.93;6.10;;;;;;;18.52;100.00;96347.53;4954590;28;105337;-60
2023/06/22 03:21:29;;;;;;;12.37;6.57;;;;;;;18.53;100.00;96342.97;4954039;28;105514;-60
2023/06/22 03:23:56;;;;;;;9.30;6.50;;;;;;;18.42;100.00;96347.75;4975530;28;101882;-60
2023/06/22 03:26:26;;;;;;;8.57;6.77;;;;;;;18.34;100.00;96348.47;4970351;28;105470;-60
2023/06/22 03:28:53;;;;;;;9.57;7.13;;;;;;;18.27;100.00;96355.31;4970891;28;101987;-60
2023/06/22 03:31:21;;;;;;;15.70;7.33;;;;;;;18.33;100.00;96357.66;4954576;28;105952;-60
2023/06/22 03:33:49;;;;;;;9.20;6.87;;;;;;;18.30;100.00;96363.59;4953957;28;105705;-60
2023/06/22 03:36:18;;;;;;;10.73;7.20;;;;;;;18.36;100.00;96369.72;4954312;28;102026;-60
2023/06/22 03:38:45;;;;;;;10.20;7.20;;;;;;;18.36;100.00;96372.41;4954189;28;105976;-60
2023/06/22 03:41:13;;;;;;;10.40;8.17;;;;;;;18.46;100.00;96377.56;4953759;28;105527;-60
2023/06/22 03:43:42;;;;;;;11.13;7.37;;;;;;;18.46;100.00;96378.38;4954371;28;102088;-60
2023/06/22 03:46:09;;;;;;;11.70;7.83;;;;;;;18.41;100.00;96380.34;4956234;28;105487;-60
2023/06/22 03:48:36;;;;;;;11.20;7.90;;;;;;;18.41;100.00;96380.34;4954189;28;101931;-60
2023/06/22 03:51:04;;;;;;;11.93;7.93;;;;;;;18.47;100.00;96382.66;4954223;28;105261;-60
2023/06/22 03:53:31;;;;;;;11.47;7.60;;;;;;;18.51;100.00;96380.16;4953469;28;105837;-60
2023/06/22 03:55:58;;;;;;;10.03;7.90;;;;;;;18.54;100.00;96379.56;4954306;28;101926;-60
2023/06/22 03:58:25;;;;;;;11.57;7.80;;;;;;;18.67;100.00;96373.34;4954098;28;105670;-60
2023/06/22 04:00:54;;;;;;;11.63;7.50;;;;;;;18.82;100.00;96378.44;4969589;28;105712;-60
2023/06/22 04:03:21;;;;;;;11.87;7.60;;;;;;;18.84;100.00;96381.63;4970265;28;101876;-60
2023/06/22 04:05:48;;;;;;;9.80;7.23;;;;;;;18.94;100.00;96389.47;4971598;28;102980;-60
2023/06/22 04:08:15;;;;;;;10.07;7.53;;;;;;;19.03;100.00;96382.28;4956567;28;105758;-60
2023/06/22 04:10:43;;;;;;;9.90;7.07;;;;;;;19.14;100.00;96378.25;4953952;28;105676;-60
2023/06/22 04:13:10;;;;;;;9.73;7.97;;;;;;;19.17;100.00;96370.34;4953286;28;105735;-60
2023/06/22 04:15:37;;;;;;;11.47;7.70;;;;;;;19.27;100.00;96375.56;4953630;28;102023;-60
2023/06/22 04:18:06;;;;;;;8.93;7.87;;;;;;;19.37;100.00;96371.81;4969931;28;105809;-60
2023/06/22 04:20:33;;;;;;;10.90;8.70;;;;;;;19.47;100.00;96363.47;4953193;28;105782;-60
2023/06/22 04:23:00;;;;;;;13.00;7.93;;;;;;;19.56;100.00;96367.03;4953458;28;101926;-60
2023/06/22 04:25:27;;;;;;;14.17;7.27;;;;;;;19.67;100.00;96368.38;4969265;28;105028;-60
2023/06/22 04:27:54;;;;;;;10.93;7.57;;;;;;;19.79;100.00;96369.41;4952923;28;104744;-60
2023/06/22 04:30:21;;;;;;;8.23;7.33;;;;;;;19.87;100.00;96371.38;4956941;28;101978;-60
2023/06/22 04:32:57;;;;;;;9.83;7.47;;;;;;;19.69;100.00;96368.88;4969077;28;104350;-60
2023/06/22 04:35:26;;;;;;;11.77;7.40;;;;;;;19.49;100.00;96369.34;4969876;28;101786;-60
2023/06/22 04:37:55;;;;;;;8.00;6.27;;;;;;;19.70;100.00;96365.88;4970996;28;102957;-60
2023/06/22 04:40:23;;;;;;;8.60;7.23;;;;;;;19.86;100.00;96352.78;4952867;28;105883;-60
2023/06/22 04:42:53;;;;;;;13.13;7.20;;;;;;;20.00;100.00;96356.97;4953219;28;102301;-60
2023/06/22 04:45:21;;;;;;;10.40;7.43;;;;;;;20.10;100.00;96354.03;4969743;28;105147;-60
2023/06/22 04:47:48;;;;;;;9.43;6.67;;;;;;;20.28;100.00;96346.81;4952088;28;105331;-60
2023/06/22 04:50:16;;;;;;;10.13;6.83;;;;;;;20.44;100.00;96340.66;4972951;28;102419;-60
2023/06/22 04:52:45;;;;;;;9.30;6.90;;;;;;;20.57;100.00;96341.66;4952522;28;105879;-60
2023/06/22 04:55:12;;;;;;;9.23;7.83;;;;;;;20.70;100.00;96343.44;4970863;28;102025;-60
2023/06/22 04:57:39;;;;;;;13.17;8.13;;;;;;;20.76;100.00;96353.00;4952873;28;105295;-60
2023/06/22 05:00:12;;;;;;;10.57;8.37;;;;;;;20.88;100.00;96350.47;4968734;28;105432;-62
2023/06/22 05:02:39;;;;;;;10.63;7.60;;;;;;;20.90;100.00;96342.84;4969446;28;101833;-62
2023/06/22 05:05:07;;;;;;;12.60;7.20;;;;;;;21.31;100.00;96335.09;4953011;28;105404;-62
2023/06/22 05:07:34;;;;;;;10.27;8.27;;;;;;;21.29;100.00;96340.00;4952377;28;104420;-62
2023/06/22 05:10:04;;;;;;;13.30;8.20;;;;;;;21.33;100.00;96344.47;4953015;28;102334;-62
2023/06/22 05:12:31;;;;;;;12.07;8.37;;;;;;;21.04;100.00;96340.81;4955632;28;104073;-62
2023/06/22 05:14:58;;;;;;;11.13;7.70;;;;;;;20.90;100.00;96335.56;4952810;28;101920;-62
2023/06/22 05:17:25;;;;;;;11.20;7.80;;;;;;;21.24;100.00;96335.56;4952980;28;105180;-62
2023/06/22 05:19:53;;;;;;;10.50;7.93;;;;;;;21.46;100.00;96342.69;4952247;28;105500;-62
2023/06/22 05:22:20;;;;;;;10.43;7.10;;;;;;;21.93;100.00;96341.69;4969142;28;102019;-62
2023/06/22 05:24:47;;;;;;;15.47;8.80;;;;;;;21.62;100.00;96330.25;4952742;28;105270;-62
2023/06/22 05:27:16;;;;;;;10.80;7.70;;;;;;;21.70;100.00;96322.16;4952011;28;105524;-62
2023/06/22 05:29:43;;;;;;;12.20;8.27;;;;;;;21.83;100.00;96336.63;4952767;28;102015;-62
2023/06/22 05:32:10;;;;;;;11.33;7.60;;;;;;;21.93;100.00;96331.66;4952639;28;105513;-62
2023/06/22 05:34:37;;;;;;;11.20;8.03;;;;;;;21.86;100.00;96338.69;4955336;28;105064;-62
2023/06/22 05:37:05;;;;;;;11.27;8.47;;;;;;;21.72;100.00;96328.06;4952641;28;105413;-62
2023/06/22 05:39:32;;;;;;;13.00;8.60;;;;;;;21.82;100.00;96326.91;4951891;28;105534;-62
2023/06/22 05:41:59;;;;;;;11.13;8.20;;;;;;;21.93;100.00;96325.44;4952529;28;101941;-62
2023/06/22 05:44:27;;;;;;;13.03;7.83;;;;;;;22.39;100.00;96314.59;4970380;28;102680;-62
2023/06/22 05:46:54;;;;;;;8.57;7.10;;;;;;;22.54;100.00;96316.75;4951223;28;105326;-62
2023/06/22 05:49:21;;;;;;;14.33;8.33;;;;;;;22.51;100.00;96325.56;4952570;28;102166;-62
2023/06/22 05:51:48;;;;;;;11.47;8.57;;;;;;;22.68;100.00;96325.47;4968687;28;105219;-62
2023/06/22 05:54:17;;;;;;;10.73;7.63;;;;;;;22.78;100.00;96330.50;4951795;28;105802;-62
2023/06/22 05:56:44;;;;;;;11.93;8.50;;;;;;;22.69;100.00;96325.13;4955667;28;102070;-61
2023/06/22 05:59:12;;;;;;;9.63;7.73;;;;;;;22.71;100.00;96324.78;4969398;28;102866;-62
2023/06/22 06:01:40;;;;;;;13.30;7.97;;;;;;;22.78;100.00;96325.06;4968717;28;102132;-62
2023/06/22 06:04:08;;;;;;;11.63;8.20;;;;;;;22.60;100.00;96318.16;4952348;28;105096;-62
2023/06/22 06:06:36;;;;;;;12.03;8.30;;;;;;;22.75;100.00;96328.44;4951605;28;103906;-61
2023/06/22 06:09:04;;;;;;;10.07;7.37;;;;;;;22.82;100.00;96321.38;4968604;28;101989;-62
2023/06/22 06:11:31;;;;;;;12.23;8.00;;;;;;;22.98;100.00;96316.94;4968398;28;103738;-62
2023/06/22 06:13:58;;;;;;;8.43;7.60;;;;;;;22.78;100.00;96319.66;4951503;28;105967;-62
2023/06/22 06:16:24;;;;;;;13.10;8.10;;;;;;;22.64;100.00;96314.47;4968455;28;101924;-62
2023/06/22 06:18:54;;;;;;;12.87;8.00;;;;;;;22.70;100.00;96323.19;4954851;28;105214;-62
2023/06/22 06:21:21;;;;;;;11.03;7.70;;;;;;;23.02;100.00;96317.06;4952138;28;102294;-62
2023/06/22 06:23:48;;;;;;;12.37;7.93;;;;;;;22.97;100.00;96317.28;4951951;28;105387;-62
2023/06/22 06:26:16;;;;;;;14.13;8.60;;;;;;;22.91;100.00;96316.69;4951259;28;105899;-62
2023/06/22 06:28:43;;;;;;;10.83;8.13;;;;;;;22.61;100.00;96315.13;4951905;28;102141;-62
2023/06/22 06:31:11;;;;;;;9.50;7.50;;;;;;;23.12;100.00;96316.69;4969812;28;102351;-62
2023/06/22 06:33:38;;;;;;;11.80;8.03;;;;;;;23.44;100.00;96322.16;4951205;28;105347;-62
2023/06/22 06:36:08;;;;;;;10.43;8.03;;;;;;;23.50;100.00;96311.91;4969765;28;101848;-62
2023/06/22 06:38:35;;;;;;;8.97;7.80;;;;;;;23.45;100.00;96317.56;4951805;28;105647;-62
2023/06/22 06:41:02;;;;;;;12.40;8.10;;;;;;;23.62;100.00;96311.94;4954555;28;106758;-62
2023/06/22 06:43:29;;;;;;;10.17;7.47;;;;;;;23.90;100.00;96311.06;4951801;28;105765;-62
2023/06/22 06:45:56;;;;;;;13.07;7.67;;;;;;;24.10;100.00;96312.91;4968355;28;102550;-62
2023/06/22 06:48:22;;;;;;;14.53;7.53;;;;;;;24.40;100.00;96305.31;4972441;28;102084;-62
2023/06/22 06:50:49;;;;;;;14.90;7.40;;;;;;;24.61;100.00;96301.38;4973093;28;102619;-62
2023/06/22 06:53:18;;;;;;;9.57;7.10;;;;;;;24.63;100.00;96309.22;4954456;28;106088;-62
2023/06/22 06:55:45;;;;;;;13.00;8.20;;;;;;;23.74;100.00;96299.22;4954815;28;102044;-62
2023/06/22 06:58:13;;;;;;;13.17;8.00;;;;;;;23.90;100.00;96307.53;4971441;28;105559;-62
2023/06/22 07:00:40;;;;;;;13.37;8.40;;;;;;;24.22;100.00;96312.09;4957840;28;105409;-62
2023/06/22 07:03:07;;;;;;;14.00;8.40;;;;;;;24.31;100.00;96305.44;4954938;28;105574;-62
2023/06/22 07:05:35;;;;;;;9.97;7.67;;;;;;;24.39;100.00;96301.00;4954362;28;105287;-62
2023/06/22 07:08:02;;;;;;;14.60;8.23;;;;;;;24.79;100.00;96299.22;4972579;28;101894;-62
2023/06/22 07:10:30;;;;;;;13.10;7.03;;;;;;;25.21;100.00;96293.09;4972547;28;102334;-62
2023/06/22 07:12:58;;;;;;;11.97;7.07;;;;;;;25.55;100.00;96291.75;4971875;28;103833;-62
2023/06/22 07:15:25;;;;;;;10.53;7.60;;;;;;;25.70;100.00;96290.97;4972494;28;101875;-62
2023/06/22 07:17:52;;;;;;;8.80;6.43;;;;;;;25.93;100.00;96281.13;4954873;28;105185;-62
2023/06/22 07:20:19;;;;;;;11.40;7.10;;;;;;;25.85;100.00;96279.31;4954021;28;105422;-62
2023/06/22 07:22:46;;;;;;;11.17;7.13;;;;;;;25.88;100.00;96273.19;4975710;28;101847;-62
2023/06/22 07:25:15;;;;;;;11.73;7.63;;;;;;;25.24;100.00;96272.56;4971876;28;102656;-62
2023/06/22 07:27:47;;;;;;;12.60;7.37;;;;;;;25.45;100.00;96278.63;4972362;28;102055;-62
2023/06/22 07:30:14;;;;;;;8.97;7.70;;;;;;;25.73;100.00;96277.44;4972420;28;102468;-62
2023/06/22 07:32:41;;;;;;;15.17;7.50;;;;;;;25.93;100.00;96279.19;4954084;28;103935;-62
2023/06/22 07:35:09;;;;;;;12.43;7.50;;;;;;;26.09;100.00;96276.47;4972185;28;102248;-62
2023/06/22 07:37:36;;;;;;;13.00;7.63;;;;;;;26.28;100.00;96273.84;4954275;28;105247;-62
2023/06/22 07:40:06;;;;;;;7.73;6.63;;;;;;;26.36;100.00;96259.22;4971529;28;101911;-62
2023/06/22 07:42:33;;;;;;;10.40;6.37;;;;;;;26.52;100.00;96266.22;4972066;28;101837;-62
2023/06/22 07:45:04;;;;;;;12.50;7.37;;;;;;;26.70;100.00;96272.91;4973386;28;105712;-62
2023/06/22 07:47:34;;;;;;;14.67;6.57;;;;;;;26.55;100.00;96270.22;4953688;28;102023;-62
2023/06/22 07:50:03;;;;;;;9.03;6.70;;;;;;;26.93;100.00;96262.91;4954403;28;105257;-62
2023/06/22 07:52:30;;;;;;;12.53;6.33;;;;;;;27.18;100.00;96266.97;4971158;28;102689;-62
2023/06/22 07:54:57;;;;;;;10.73;6.13;;;;;;;27.25;100.00;96266.34;4954190;28;101921;-62
2023/06/22 07:57:31;;;;;;;12.23;6.43;;;;;;;27.51;100.00;96264.53;4954173;28;105681;-62
2023/06/22 07:59:59;;;;;;;11.43;7.03;;;;;;;27.60;100.00;96261.56;4968521;28;105645;-62
2023/06/22 08:02:27;;;;;;;10.77;6.47;;;;;;;27.75;100.00;96263.41;4954086;28;102117;-62
2023/06/22 08:04:54;;;;;;;10.37;6.20;;;;;;;27.82;100.00;96269.03;4971626;28;102799;-62
2023/06/22 08:07:21;;;;;;;10.27;6.43;;;;;;;28.13;100.00;96268.81;4974331;28;102614;-62
2023/06/22 08:09:48;;;;;;;9.18;6.40;;;;;;;28.24;100.00;96267.03;4953736;28;104852;-62
2023/06/22 08:12:16;;;;;;;14.77;7.07;;;;;;;27.88;100.00;96265.66;4971013;28;102610;-62
2023/06/22 08:14:44;;;;;;;9.18;6.40;;;;;;;27.49;100.00;96271.50;4953670;28;101952;-62
2023/06/22 08:17:11;;;;;;;10.55;6.20;;;;;;;27.82;100.00;96271.75;4953193;28;105442;-62
2023/06/22 08:19:40;;;;;;;11.03;6.43;;;;;;;28.10;100.00;96270.31;4970528;28;102533;-61
2023/06/22 08:22:07;;;;;;;10.75;7.60;;;;;;;28.09;100.00;96274.22;4937140;28;102044;-61
2023/06/22 08:24:34;;;;;;;12.77;7.17;;;;;;;27.93;100.00;96275.47;4953333;28;105510;-61
2023/06/22 08:27:01;;;;;;;9.77;7.27;;;;;;;27.69;100.00;96262.13;4970370;28;102519;-61
2023/06/22 08:29:27;;;;;;;14.10;7.10;;;;;;;27.87;100.00;96263.28;4956559;28;102046;-61
2023/06/22 08:31:54;;;;;;;11.63;6.63;;;;;;;27.88;100.00;96267.56;4952757;28;105407;-61
2023/06/22 08:34:27;;;;;;;9.83;7.17;;;;;;;27.92;100.00;96261.03;4971171;28;101736;-61
2023/06/22 08:36:56;;;;;;;12.73;7.33;;;;;;;28.58;100.00;96255.91;4953034;28;105607;-61
2023/06/22 08:39:22;;;;;;;13.70;6.53;;;;;;;28.71;100.00;96246.31;4969885;28;102504;-61
2023/06/22 08:41:49;;;;;;;12.50;6.43;;;;;;;29.01;100.00;96249.91;4971217;28;102075;-61
2023/06/22 08:44:20;;;;;;;13.43;6.00;;;;;;;29.59;100.00;96252.97;4952995;28;105591;-61
2023/06/22 08:46:47;;;;;;;10.35;5.85;;;;;;;29.90;100.00;96252.50;4948616;28;106035;-61
2023/06/22 08:49:14;;;;;;;11.95;6.35;;;;;;;30.10;100.00;96245.66;4950119;28;102125;-62
2023/06/22 08:51:40;;;;;;;9.88;5.85;;;;;;;30.36;100.00;96251.00;4952762;28;105769;-61
2023/06/22 08:54:09;;;;;;;11.65;6.30;;;;;;;30.56;100.00;96263.31;4951606;28;101971;-62
2023/06/22 08:56:36;;;;;;;12.02;6.20;;;;;;;30.34;100.00;96256.09;4950047;28;105250;-61
2023/06/22 08:59:03;;;;;;;11.07;6.53;;;;;;;30.59;100.00;96244.13;4949409;28;105389;-62
2023/06/22 09:01:29;;;;;;;9.65;5.68;;;;;;;30.69;100.00;96257.19;4951461;28;101896;-62
2023/06/22 09:03:57;;;;;;;13.60;6.10;;;;;;;30.02;100.00;96246.75;4950933;28;102426;-61
2023/06/22 09:06:24;;;;;;;10.18;6.00;;;;;;;29.39;100.00;96241.38;4950380;28;102791;-61
2023/06/22 09:08:51;;;;;;;11.93;6.13;;;;;;;30.14;100.00;96249.25;4951237;28;101937;-61
2023/06/22 09:11:19;;;;;;;11.23;5.47;;;;;;;30.79;100.00;96248.19;4952199;28;105669;-61
2023/06/22 09:13:47;;;;;;;8.45;5.45;;;;;;;30.98;92.51;96255.38;4949733;28;101972;-60
2023/06/22 09:16:14;;;;;;;10.93;5.32;;;;;;;31.16;88.86;96254.28;4949912;28;105583;-59
2023/06/22 09:18:41;;;;;;;11.75;6.00;;;;;;;31.27;92.78;96246.16;4948887;28;105457;-60
2023/06/22 09:21:08;;;;;;;10.00;5.90;;;;;;;31.41;88.80;96246.19;4949761;28;102047;-60
2023/06/22 09:23:35;;;;;;;12.75;5.85;;;;;;;31.44;89.90;96248.94;4949684;28;105800;-60
2023/06/22 09:26:03;;;;;;;9.52;5.40;;;;;;;31.91;87.99;96245.97;4948950;28;105189;-60
2023/06/22 09:28:33;;;;;;;7.20;5.35;;;;;;;32.09;88.45;96240.50;4949628;28;101862;-60
2023/06/22 09:31:00;;;;;;;10.32;5.35;;;;;;;31.99;91.03;96238.50;4949535;28;105394;-60
2023/06/22 09:33:27;;;;;;;11.65;5.47;;;;;;;32.27;81.66;96227.56;4952190;28;105207;-60
2023/06/22 09:35:54;;;;;;;15.30;5.95;;;;;;;32.32;78.60;96227.94;4965992;28;105316;-60
2023/06/22 09:38:21;;;;;;;8.30;5.45;;;;;;;32.28;86.26;96229.91;4948836;28;105522;-60
2023/06/22 09:40:48;;;;;;;10.48;5.97;;;;;;;32.30;84.87;96226.78;4949297;28;102241;-60
2023/06/22 09:43:14;;;;;;;12.30;5.65;;;;;;;32.82;82.04;96217.69;4949430;28;104949;-60
2023/06/22 09:45:43;;;;;;;13.90;6.43;;;;;;;32.92;79.79;96214.13;4949941;28;103135;-61
2023/06/22 09:48:10;;;;;;;8.75;5.20;;;;;;;32.84;78.50;96207.84;4968586;28;102075;-60
2023/06/22 09:50:37;;;;;;;12.77;5.18;;;;;;;32.77;76.17;96205.09;4951940;28;104852;-60
2023/06/22 09:53:04;;;;;;;9.00;5.22;;;;;;;32.72;72.06;96210.19;4951753;28;103776;-60
2023/06/22 09:55:31;;;;;;;9.00;5.00;;;;;;;32.80;72.10;96209.81;4955739;28;101849;-60
2023/06/22 09:57:58;;;;;;;9.77;5.40;;;;;;;32.97;66.10;96217.22;4951767;28;105457;-60
2023/06/22 10:00:26;;;;;;;9.38;5.22;;;;;;;33.43;66.23;96215.13;4952341;28;102272;-60
2023/06/22 10:02:55;;;;;;;8.82;5.80;;;;;;;33.17;64.07;96203.78;4952253;28;105648;-60
2023/06/22 10:05:22;;;;;;;10.85;5.32;;;;;;;33.36;64.36;96206.09;4967816;28;104320;-60
2023/06/22 10:07:49;;;;;;;9.60;5.13;;;;;;;33.55;60.40;96208.34;4952226;28;102288;-60
2023/06/22 10:10:16;;;;;;;10.02;5.10;;;;;;;33.80;58.05;96207.06;4951530;28;105297;-60
2023/06/22 10:12:46;;;;;;;10.27;6.22;;;;;;;34.17;58.00;96200.88;4951480;28;105698;-60
2023/06/22 10:15:14;;;;;;;11.27;5.07;;;;;;;33.92;59.98;96192.00;4952129;28;102053;-60
2023/06/22 10:17:41;;;;;;;10.80;5.82;;;;;;;34.09;59.40;96194.63;4954777;28;105061;-60
2023/06/22 10:20:12;;;;;;;9.05;5.90;;;;;;;33.54;58.04;96201.28;4951939;28;102027;-60
2023/06/22 10:22:40;;;;;;;12.07;5.90;;;;;;;33.65;59.34;96200.03;4951297;28;104281;-60
2023/06/22 10:25:08;;;;;;;12.48;5.82;;;;;;;33.71;58.47;96195.66;4969008;28;102602;-60
2023/06/22 10:27:35;;;;;;;11.43;5.93;;;;;;;34.14;58.45;96196.16;4969837;28;101951;-60
2023/06/22 10:30:02;;;;;;;11.90;6.15;;;;;;;34.48;58.10;96194.34;4951536;28;105460;-60
2023/06/22 10:32:29;;;;;;;8.98;5.68;;;;;;;34.42;57.16;96184.91;4951297;28;105707;-60
2023/06/22 10:34:56;;;;;;;13.23;5.05;;;;;;;33.90;60.71;96172.31;4969849;28;101970;-60
2023/06/22 10:37:25;;;;;;;11.55;5.45;;;;;;;34.43;56.46;96172.69;4952391;28;105234;-60
2023/06/22 10:39:51;;;;;;;12.45;5.85;;;;;;;34.28;55.60;96162.97;4954536;28;102988;-60
2023/06/22 10:42:18;;;;;;;7.95;5.18;;;;;;;34.34;52.79;96164.88;4969707;28;102409;-60
2023/06/22 10:44:45;;;;;;;9.75;5.13;;;;;;;34.43;57.59;96159.66;4968949;28;103006;-60
2023/06/22 10:47:12;;;;;;;11.63;5.50;;;;;;;34.71;55.65;96156.59;4968779;28;101797;-60
2023/06/22 10:49:39;;;;;;;8.55;5.25;;;;;;;34.88;50.18;96160.41;4969643;28;102933;-60
2023/06/22 10:52:07;;;;;;;10.95;5.30;;;;;;;34.95;50.68;96154.78;4968957;28;102630;-60
2023/06/22 10:54:37;;;;;;;11.30;5.20;;;;;;;35.43;49.55;96149.84;4951743;28;102252;-60
2023/06/22 10:57:05;;;;;;;11.35;5.45;;;;;;;35.56;47.42;96151.63;4951671;28;105193;-60
2023/06/22 10:59:32;;;;;;;9.43;5.18;;;;;;;35.55;48.94;96152.03;4950923;28;105396;-60
2023/06/22 11:01:59;;;;;;;12.15;5.95;;;;;;;35.73;47.88;96149.81;4954892;28;101765;-60
2023/06/22 11:04:26;;;;;;;9.25;5.05;;;;;;;35.92;48.50;96147.19;4968543;28;102514;-60
2023/06/22 11:06:53;;;;;;;10.70;4.85;;;;;;;36.21;44.21;96144.72;4969157;28;101861;-60
2023/06/22 11:09:20;;;;;;;11.77;4.95;;;;;;;36.44;43.18;96139.19;4969432;28;103106;-60
2023/06/22 11:11:48;;;;;;;12.23;4.97;;;;;;;36.28;41.41;96139.84;4968719;28;103252;-60
2023/06/22 11:14:15;;;;;;;9.63;4.30;;;;;;;36.65;39.30;96133.28;4968717;28;102227;-60
2023/06/22 11:16:42;;;;;;;12.25;4.75;;;;;;;36.31;40.74;96132.69;4969441;28;102709;-60
2023/06/22 11:19:09;;;;;;;12.52;5.13;;;;;;;36.50;41.07;96127.19;4968706;28;102497;-62